aviador You're here:

KNBC Decoded Metar

BEAUFORT in SC, USA
Report Time2017-11-20 20:56:00
UTC Time2017-11-20 21:20:54
Flight Rules vfr VFR
Wind110° at 07 kt
W.Decomp.*RWY 14: 6.3 kt HW 3 kt LCW
RWY 18: 3.0 kt HW 6.3 kt LCW
RWY 05: 3.0 kt HW 6.3 kt RCW
W.Rank110° ranks 30
Current wind is above 110° avg. (6.3)
Visibility9999 m
Phenomena:N/A
Clouds:Scattered 250 Hf
Expected CloudBase > 4,400 ft AGL from Temp-Dew spread
CeilingNone
Temp15°C (ISA 0)
Dew Point04°C (48% RH)
AAT11.2°C
QNH1024 hPa
Density Alt-213 ft
Elevation37 ft
Report Wrong Elevation
Raw Report
METAR KNBC 202056Z 11007KT 10SM SCT250 15/04 A3023 RMK AO2 SLP236 T01500044
55006 $=

Extra information for KNBC:More info

Metar Taf Metar & Taf Last 4 Metars F.Rules Stats Wind Profile Meteogram Temp Stats Airport Information Weather charts Add Link Nearby VenuesMetar ALERT Operation Metar Decoded Social comments

AIRNAV info for KNBC